Time;durP1;ratioP1;P1;durP2;ratioP2;P2;SDS_P1;SDS_P2;PMS_P1;PMS_P2;Temp;Humidity;BMP_temperature;BMP_pressure;BME280_temperature;BME280_humidity;BME280_pressure;Samples;Min_cycle;Max_cycle;Signal;HPM_P1;HPM_P2
2022/02/17 00:00:49;;;;;;;0.40;0.37;;;14.10;84.10;;;;;;5029574;28;20747;-46
2022/02/17 00:03:17;;;;;;;0.40;0.30;;;14.10;84.10;;;;;;5028662;28;21077;-45
2022/02/17 00:05:44;;;;;;;0.50;0.40;;;14.20;84.10;;;;;;5029459;28;20467;-45
2022/02/17 00:08:14;;;;;;;0.40;0.40;;;14.20;84.40;;;;;;5029951;28;20497;-46
2022/02/17 00:10:41;;;;;;;0.93;0.73;;;14.20;84.40;;;;;;5030026;28;20630;-46
2022/02/17 00:13:08;;;;;;;0.60;0.50;;;14.20;84.40;;;;;;5026821;28;21040;-45
2022/02/17 00:15:35;;;;;;;0.50;0.50;;;14.10;85.10;;;;;;5029963;28;20512;-45
2022/02/17 00:18:11;;;;;;;0.40;0.30;;;14.10;85.40;;;;;;5028938;28;20470;-46
2022/02/17 00:20:38;;;;;;;1.00;0.50;;;14.00;85.50;;;;;;5028853;28;20826;-46
2022/02/17 00:23:04;;;;;;;0.60;0.40;;;14.00;85.60;;;;;;5027137;28;20469;-46
2022/02/17 00:25:31;;;;;;;0.40;0.40;;;14.00;85.40;;;;;;5030496;28;20845;-47
2022/02/17 00:27:58;;;;;;;0.93;0.50;;;14.00;85.30;;;;;;5027503;28;20501;-46
2022/02/17 00:30:25;;;;;;;0.50;0.40;;;14.00;85.40;;;;;;5012738;28;20475;-46
2022/02/17 00:32:51;;;;;;;1.13;0.40;;;14.00;85.60;;;;;;5031283;28;20757;-47
2022/02/17 00:35:19;;;;;;;0.40;0.30;;;14.00;85.90;;;;;;5029092;28;20443;-46
2022/02/17 00:37:46;;;;;;;0.30;0.20;;;14.00;86.00;;;;;;5028407;28;21114;-46
2022/02/17 00:40:13;;;;;;;0.57;0.40;;;14.00;85.80;;;;;;5027526;28;20822;-46
2022/02/17 00:42:39;;;;;;;0.50;0.30;;;14.00;85.40;;;;;;5027358;28;20470;-46
2022/02/17 00:45:07;;;;;;;1.00;0.40;;;14.00;85.50;;;;;;5024455;28;20551;-45
2022/02/17 00:47:33;;;;;;;0.40;0.30;;;14.00;85.30;;;;;;5028777;28;20483;-46
2022/02/17 00:50:00;;;;;;;0.50;0.40;;;14.00;85.20;;;;;;5028049;28;20495;-46
2022/02/17 00:52:27;;;;;;;0.80;0.40;;;14.00;84.90;;;;;;5013678;28;20543;-46
2022/02/17 00:54:54;;;;;;;0.60;0.30;;;14.00;84.80;;;;;;5011955;28;20451;-46
2022/02/17 00:57:24;;;;;;;0.70;0.30;;;14.00;85.10;;;;;;5027872;28;20501;-46
2022/02/17 00:59:50;;;;;;;0.40;0.30;;;14.00;84.90;;;;;;5025901;28;20488;-46
2022/02/17 01:02:17;;;;;;;0.90;0.50;;;14.00;85.10;;;;;;5026897;28;20547;-46
2022/02/17 01:04:44;;;;;;;0.40;0.30;;;14.00;84.80;;;;;;5026839;28;20464;-46
2022/02/17 01:07:11;;;;;;;0.47;0.47;;;14.00;84.70;;;;;;5029624;28;20820;-46
2022/02/17 01:09:38;;;;;;;1.33;0.70;;;14.00;84.90;;;;;;5027891;28;20577;-46
2022/02/17 01:12:05;;;;;;;0.77;0.63;;;14.00;84.70;;;;;;5015342;28;21015;-47
2022/02/17 01:14:32;;;;;;;0.57;0.43;;;14.00;84.70;;;;;;5026478;28;20466;-46
2022/02/17 01:16:58;;;;;;;0.73;0.40;;;14.00;84.40;;;;;;5029182;28;20452;-47
2022/02/17 01:19:25;;;;;;;0.67;0.43;;;14.00;84.60;;;;;;5027735;28;20458;-46
2022/02/17 01:21:53;;;;;;;0.60;0.60;;;14.00;85.20;;;;;;5028646;28;20470;-46
2022/02/17 01:24:20;;;;;;;1.63;0.70;;;14.00;85.20;;;;;;5024983;28;20454;-47
2022/02/17 01:26:48;;;;;;;0.50;0.50;;;14.00;85.60;;;;;;5027600;28;20470;-46
2022/02/17 01:29:15;;;;;;;1.00;0.60;;;13.90;86.60;;;;;;5028644;28;20450;-46
2022/02/17 01:31:42;;;;;;;0.50;0.50;;;13.90;86.70;;;;;;5031524;28;20467;-46
2022/02/17 01:34:08;;;;;;;0.93;0.77;;;13.90;87.20;;;;;;5023240;28;20459;-47
2022/02/17 01:36:35;;;;;;;0.70;0.70;;;13.80;87.60;;;;;;5024310;28;20974;-46
2022/02/17 01:39:03;;;;;;;0.60;0.30;;;13.70;87.90;;;;;;5007749;28;21109;-46
2022/02/17 01:41:31;;;;;;;0.93;0.40;;;13.70;88.00;;;;;;5024931;28;20463;-46
2022/02/17 01:44:02;;;;;;;1.27;0.70;;;13.60;88.30;;;;;;5024556;28;20491;-46
2022/02/17 01:46:40;;;;;;;0.93;0.57;;;13.60;88.40;;;;;;5014471;28;20486;-46
2022/02/17 01:49:09;;;;;;;0.40;0.30;;;13.60;88.30;;;;;;5025597;28;20475;-47
2022/02/17 01:51:37;;;;;;;0.80;0.47;;;13.60;88.50;;;;;;5023197;28;20452;-47
2022/02/17 01:54:05;;;;;;;0.87;0.30;;;13.60;89.00;;;;;;5022181;28;20469;-46
2022/02/17 01:56:34;;;;;;;0.50;0.30;;;13.50;89.20;;;;;;5025689;28;20464;-46
2022/02/17 01:59:04;;;;;;;0.50;0.40;;;13.50;89.40;;;;;;5026915;28;20585;-46
2022/02/17 02:01:35;;;;;;;0.60;0.40;;;13.50;89.30;;;;;;5021770;28;20468;-46
2022/02/17 02:04:03;;;;;;;0.40;0.30;;;13.50;88.90;;;;;;5024431;28;20542;-46
2022/02/17 02:06:30;;;;;;;0.40;0.30;;;13.50;88.80;;;;;;5011885;28;20972;-46
2022/02/17 02:08:57;;;;;;;0.57;0.30;;;13.50;88.80;;;;;;5022983;28;20503;-46
2022/02/17 02:11:25;;;;;;;0.30;0.20;;;13.50;88.90;;;;;;5025013;28;20859;-46
2022/02/17 02:13:52;;;;;;;0.77;0.20;;;13.50;89.50;;;;;;5024889;28;20706;-47
2022/02/17 02:16:19;;;;;;;0.60;0.60;;;13.50;89.80;;;;;;5021188;28;20467;-47
2022/02/17 02:18:47;;;;;;;0.63;0.40;;;13.40;89.80;;;;;;5005797;28;20455;-47
2022/02/17 02:21:14;;;;;;;0.67;0.30;;;13.40;89.80;;;;;;5005521;28;20506;-47
2022/02/17 02:23:40;;;;;;;0.40;0.30;;;13.40;89.80;;;;;;5023851;28;20459;-50
2022/02/17 02:26:07;;;;;;;1.07;0.50;;;13.40;89.80;;;;;;5025573;28;20546;-47
2022/02/17 02:28:35;;;;;;;0.30;0.20;;;13.30;89.60;;;;;;5025359;28;20470;-47
2022/02/17 02:31:02;;;;;;;0.37;0.27;;;13.40;89.40;;;;;;5022928;28;20501;-47
2022/02/17 02:33:28;;;;;;;0.30;0.20;;;13.30;88.70;;;;;;5022105;28;20465;-47
2022/02/17 02:35:55;;;;;;;0.50;0.30;;;13.30;89.00;;;;;;5025105;28;20456;-47
2022/02/17 02:38:42;;;;;;;0.50;0.20;;;13.30;88.80;;;;;;5026981;28;20820;-47
2022/02/17 02:41:10;;;;;;;0.57;0.33;;;13.40;88.60;;;;;;5024989;28;20463;-47
2022/02/17 02:43:38;;;;;;;0.40;0.37;;;13.40;88.60;;;;;;5023141;28;20904;-47
2022/02/17 02:46:07;;;;;;;0.80;0.20;;;13.40;88.50;;;;;;5023885;28;21773;-47
2022/02/17 02:48:33;;;;;;;0.30;0.20;;;13.40;86.80;;;;;;5024752;28;20852;-46
2022/02/17 02:51:00;;;;;;;0.50;0.30;;;13.40;84.00;;;;;;5009541;28;20997;-47
2022/02/17 02:53:28;;;;;;;0.53;0.30;;;13.40;83.90;;;;;;5024013;28;21079;-47
2022/02/17 02:55:54;;;;;;;1.60;0.30;;;13.40;82.90;;;;;;5024261;28;20985;-47
2022/02/17 02:58:22;;;;;;;0.50;0.37;;;13.50;82.80;;;;;;5006172;28;20459;-47
2022/02/17 03:00:50;;;;;;;6.73;0.33;;;13.50;82.70;;;;;;5024826;28;20460;-47
2022/02/17 03:03:17;;;;;;;1.00;0.50;;;13.50;82.40;;;;;;5021804;28;20525;-45
2022/02/17 03:05:45;;;;;;;1.40;0.40;;;13.50;82.20;;;;;;5024804;28;20464;-46
2022/02/17 03:08:12;;;;;;;0.50;0.30;;;13.50;81.60;;;;;;5015114;28;20463;-46
2022/02/17 03:10:39;;;;;;;1.80;0.67;;;13.50;81.80;;;;;;5024966;28;20494;-46
2022/02/17 03:13:06;;;;;;;0.40;0.30;;;13.50;81.80;;;;;;5023503;28;20455;-46
2022/02/17 03:15:33;;;;;;;0.93;0.50;;;13.50;80.50;;;;;;5014441;28;20463;-45
2022/02/17 03:18:01;;;;;;;1.73;0.40;;;13.50;79.40;;;;;;5023635;28;20834;-46
2022/02/17 03:20:28;;;;;;;0.40;0.40;;;13.50;77.80;;;;;;5024000;28;20467;-46
2022/02/17 03:22:55;;;;;;;0.53;0.30;;;13.40;78.00;;;;;;5025742;28;20456;-46
2022/02/17 03:25:22;;;;;;;0.40;0.30;;;13.40;76.30;;;;;;5023431;28;20471;-46
2022/02/17 03:27:48;;;;;;;0.40;0.30;;;13.40;74.90;;;;;;5022609;28;20506;-46
2022/02/17 03:30:15;;;;;;;2.70;0.50;;;13.40;74.40;;;;;;5008761;28;20488;-46
2022/02/17 03:32:42;;;;;;;1.50;0.50;;;13.40;73.40;;;;;;5009518;28;20490;-46
2022/02/17 03:35:09;;;;;;;1.13;0.47;;;13.30;72.60;;;;;;5008394;28;20735;-46
2022/02/17 03:37:36;;;;;;;1.73;0.70;;;13.30;72.00;;;;;;5025256;28;20466;-46
2022/02/17 03:40:05;;;;;;;2.60;0.63;;;13.20;70.10;;;;;;5007422;28;20972;-46
2022/02/17 03:42:31;;;;;;;3.63;0.77;;;13.20;69.10;;;;;;5024000;28;20995;-46
2022/02/17 03:44:58;;;;;;;2.10;0.77;;;13.20;68.10;;;;;;5021953;28;20530;-47
2022/02/17 03:47:25;;;;;;;5.80;0.90;;;13.20;67.10;;;;;;5024448;28;20497;-46
2022/02/17 03:49:52;;;;;;;3.13;1.20;;;13.10;64.50;;;;;;4993813;28;20468;-46
2022/02/17 03:52:19;;;;;;;3.30;0.80;;;13.10;62.80;;;;;;5024515;28;20469;-46
2022/02/17 03:54:45;;;;;;;6.20;1.00;;;13.10;63.40;;;;;;5004546;28;20467;-46
2022/02/17 03:57:12;;;;;;;3.40;1.20;;;13.10;61.40;;;;;;5026181;28;20451;-45
2022/02/17 03:59:40;;;;;;;5.07;1.40;;;13.00;61.90;;;;;;5022075;28;20485;-48
2022/02/17 04:02:09;;;;;;;3.90;1.13;;;13.00;60.40;;;;;;5025156;28;20811;-46
2022/02/17 04:04:35;;;;;;;5.30;1.50;;;13.00;60.70;;;;;;5023959;28;20462;-46
2022/02/17 04:07:03;;;;;;;4.93;1.17;;;12.90;61.70;;;;;;5009975;28;20464;-46
2022/02/17 04:09:30;;;;;;;4.03;1.20;;;12.90;62.30;;;;;;5011428;28;20463;-46
2022/02/17 04:11:59;;;;;;;4.70;1.63;;;12.80;62.50;;;;;;5029119;28;20491;-46
2022/02/17 04:14:26;;;;;;;3.63;2.07;;;12.80;61.90;;;;;;5011154;28;20455;-46
2022/02/17 04:16:52;;;;;;;6.20;2.00;;;12.70;62.80;;;;;;5027866;28;20494;-46
2022/02/17 04:19:19;;;;;;;5.10;1.40;;;12.70;62.10;;;;;;5028953;28;20466;-46
2022/02/17 04:21:46;;;;;;;3.63;1.50;;;12.70;62.10;;;;;;5027938;28;20479;-46
2022/02/17 04:24:12;;;;;;;6.70;1.60;;;12.60;61.90;;;;;;5028787;28;20467;-45
2022/02/17 04:26:39;;;;;;;2.63;1.30;;;12.60;61.20;;;;;;5026699;28;20463;-45
2022/02/17 04:29:06;;;;;;;7.27;1.93;;;12.50;60.20;;;;;;5024514;28;20462;-45
2022/02/17 04:31:33;;;;;;;4.47;1.90;;;12.50;59.40;;;;;;5028241;28;20858;-45
2022/02/17 04:33:59;;;;;;;5.60;1.60;;;12.50;60.10;;;;;;5027360;28;20558;-46
2022/02/17 04:36:26;;;;;;;5.03;1.67;;;12.40;59.00;;;;;;5009729;28;20482;-45
2022/02/17 04:38:53;;;;;;;6.20;1.77;;;12.40;60.00;;;;;;5024779;28;20486;-45
2022/02/17 04:44:08;;;;;;;4.20;1.93;;;12.40;60.80;;;;;;5026740;28;20463;-46
2022/02/17 04:46:35;;;;;;;4.53;1.63;;;12.40;61.90;;;;;;5012822;28;20861;-46
2022/02/17 04:49:02;;;;;;;5.10;1.80;;;12.40;61.60;;;;;;5026270;28;20472;-46
2022/02/17 04:51:29;;;;;;;4.63;1.57;;;12.30;60.50;;;;;;5025646;28;20495;-46
2022/02/17 04:53:56;;;;;;;7.13;2.07;;;12.30;60.80;;;;;;5011084;28;20456;-46
2022/02/17 04:56:27;;;;;;;6.27;2.17;;;12.30;60.30;;;;;;5023166;28;20543;-46
2022/02/17 04:58:53;;;;;;;8.30;2.30;;;12.30;59.30;;;;;;5025145;28;20463;-46
2022/02/17 05:01:20;;;;;;;8.53;2.70;;;12.30;59.90;;;;;;5006096;28;20456;-47
2022/02/17 05:03:47;;;;;;;3.10;1.60;;;12.20;60.50;;;;;;5025809;28;20498;-46
2022/02/17 05:06:14;;;;;;;5.03;1.40;;;12.20;59.30;;;;;;5025205;28;21039;-46
2022/02/17 05:08:40;;;;;;;5.73;1.80;;;12.10;59.90;;;;;;5010331;28;20560;-46
2022/02/17 05:11:07;;;;;;;5.00;1.63;;;12.10;59.00;;;;;;5006302;28;20483;-46
2022/02/17 05:13:34;;;;;;;5.80;2.03;;;12.10;59.70;;;;;;5012248;28;20468;-46
2022/02/17 05:16:01;;;;;;;5.13;1.93;;;12.10;58.30;;;;;;5026185;28;20880;-47
2022/02/17 05:18:27;;;;;;;4.17;1.90;;;12.10;58.90;;;;;;5025353;28;20463;-46
2022/02/17 05:20:54;;;;;;;6.30;1.80;;;12.10;59.50;;;;;;5024622;28;20469;-47
2022/02/17 05:23:21;;;;;;;5.50;2.03;;;12.10;59.30;;;;;;5024017;28;20474;-47
2022/02/17 05:25:48;;;;;;;9.53;1.87;;;12.00;60.20;;;;;;5024896;28;20470;-47
2022/02/17 05:28:16;;;;;;;9.23;2.57;;;12.00;60.70;;;;;;5004018;28;20464;-47
2022/02/17 05:30:43;;;;;;;7.53;2.23;;;12.00;61.50;;;;;;5013096;28;21041;-47
2022/02/17 05:33:12;;;;;;;8.50;2.37;;;12.00;61.50;;;;;;4992285;28;20539;-47
2022/02/17 05:35:39;;;;;;;6.03;1.87;;;12.00;61.90;;;;;;5026519;28;20466;-47
2022/02/17 05:38:07;;;;;;;5.07;2.20;;;12.00;61.10;;;;;;5021602;28;20469;-47
2022/02/17 05:40:34;;;;;;;6.23;2.33;;;12.00;60.60;;;;;;5010438;28;20463;-47
2022/02/17 05:43:03;;;;;;;7.70;2.47;;;11.90;60.40;;;;;;4990495;28;20550;-47
2022/02/17 05:45:30;;;;;;;10.90;2.50;;;12.00;61.10;;;;;;5007821;28;20538;-47
2022/02/17 05:47:57;;;;;;;10.33;2.40;;;11.90;61.70;;;;;;5026106;28;20491;-47
2022/02/17 05:50:25;;;;;;;9.90;2.97;;;11.90;61.20;;;;;;5005012;28;20460;-47
2022/02/17 05:52:52;;;;;;;3.43;1.70;;;11.90;60.50;;;;;;5022745;28;20464;-47
2022/02/17 05:55:19;;;;;;;9.53;2.70;;;11.90;61.10;;;;;;5022016;28;20863;-47
2022/02/17 05:57:48;;;;;;;12.10;3.17;;;11.90;60.80;;;;;;5027040;28;20818;-47
2022/02/17 06:00:16;;;;;;;11.67;2.93;;;11.90;60.00;;;;;;5021250;28;20460;-47
2022/02/17 06:02:43;;;;;;;6.70;2.27;;;11.90;61.10;;;;;;5020080;28;20459;-47
2022/02/17 06:05:11;;;;;;;10.93;2.87;;;11.90;61.80;;;;;;5024224;28;20463;-47
2022/02/17 06:07:38;;;;;;;10.00;2.20;;;11.90;62.00;;;;;;5025918;28;20517;-47
2022/02/17 06:10:06;;;;;;;11.30;3.33;;;11.90;62.70;;;;;;5022366;28;20462;-47
2022/02/17 06:12:43;;;;;;;10.37;2.73;;;11.90;62.60;;;;;;5025398;28;20999;-47
2022/02/17 06:15:12;;;;;;;9.30;3.77;;;11.90;62.70;;;;;;5004584;28;20455;-47
2022/02/17 06:17:39;;;;;;;6.70;2.80;;;11.90;63.10;;;;;;5021909;28;20538;-47
2022/02/17 06:20:07;;;;;;;11.70;3.07;;;11.90;62.80;;;;;;5023149;28;20474;-47
2022/02/17 06:22:42;;;;;;;9.83;2.80;;;11.80;62.70;;;;;;5024159;28;20503;-47
2022/02/17 06:25:09;;;;;;;10.53;2.87;;;11.80;63.30;;;;;;5023682;28;20462;-47
2022/02/17 06:27:35;;;;;;;10.90;3.50;;;11.80;62.80;;;;;;5024570;28;21087;-47
2022/02/17 06:30:04;;;;;;;8.13;2.90;;;11.80;62.10;;;;;;5008165;28;21079;-47
2022/02/17 06:32:30;;;;;;;10.87;3.40;;;11.80;62.60;;;;;;5012171;28;20576;-47
2022/02/17 06:34:57;;;;;;;9.23;3.10;;;11.70;62.50;;;;;;5010893;28;20962;-47
2022/02/17 06:37:24;;;;;;;13.90;2.70;;;11.70;62.50;;;;;;5025680;28;20459;-47
2022/02/17 06:39:51;;;;;;;12.23;3.30;;;11.70;62.50;;;;;;5024571;28;20516;-47
2022/02/17 06:42:18;;;;;;;7.17;2.20;;;11.70;62.70;;;;;;5026769;28;20471;-47
2022/02/17 06:44:44;;;;;;;9.40;3.00;;;11.70;62.50;;;;;;5022796;28;20460;-47
2022/02/17 06:47:11;;;;;;;7.87;2.87;;;11.60;62.20;;;;;;5023909;28;20625;-47
2022/02/17 06:49:38;;;;;;;10.50;2.63;;;11.60;62.00;;;;;;5027046;28;20447;-47
2022/02/17 06:52:06;;;;;;;6.10;2.77;;;11.60;62.40;;;;;;5026774;28;20491;-47
2022/02/17 06:54:32;;;;;;;7.37;2.40;;;11.60;62.20;;;;;;5023107;28;20474;-47
2022/02/17 06:56:59;;;;;;;14.00;3.57;;;11.60;62.70;;;;;;5021322;28;20464;-47
2022/02/17 06:59:26;;;;;;;10.43;2.77;;;11.60;62.70;;;;;;5025098;28;20542;-47
2022/02/17 07:01:52;;;;;;;21.50;4.17;;;11.60;62.80;;;;;;5026249;28;20542;-47
2022/02/17 07:04:19;;;;;;;14.53;4.33;;;11.60;62.70;;;;;;5019433;28;20921;-47
2022/02/17 07:06:47;;;;;;;12.40;3.30;;;11.60;62.90;;;;;;5024601;28;20546;-47
2022/02/17 07:09:14;;;;;;;10.33;2.80;;;11.50;63.60;;;;;;5022021;28;20471;-47
2022/02/17 07:11:41;;;;;;;11.63;2.80;;;11.50;63.30;;;;;;5024714;28;21045;-47
2022/02/17 07:14:12;;;;;;;11.77;3.17;;;11.50;62.90;;;;;;5024861;28;20804;-47
2022/02/17 07:16:39;;;;;;;10.90;3.13;;;11.50;63.40;;;;;;5024239;28;20459;-47
2022/02/17 07:19:06;;;;;;;10.67;4.60;;;11.50;64.30;;;;;;5023428;28;20465;-47
2022/02/17 07:21:33;;;;;;;16.37;4.00;;;11.50;64.00;;;;;;5020634;28;20832;-47
2022/02/17 07:24:00;;;;;;;8.57;3.50;;;11.50;64.10;;;;;;5023888;28;20554;-47
2022/02/17 07:26:26;;;;;;;12.43;3.67;;;11.50;62.60;;;;;;5010060;28;20494;-47
2022/02/17 07:28:53;;;;;;;9.90;4.33;;;11.40;64.00;;;;;;5022408;28;20459;-47
2022/02/17 07:31:21;;;;;;;12.47;3.13;;;11.40;64.60;;;;;;5023987;28;20497;-47
2022/02/17 07:33:48;;;;;;;16.60;4.97;;;11.40;65.60;;;;;;5024226;28;20541;-47
2022/02/17 07:36:16;;;;;;;12.53;4.20;;;11.30;65.00;;;;;;5025430;28;20478;-47
2022/02/17 07:38:48;;;;;;;13.17;3.30;;;11.30;65.00;;;;;;5027003;28;20809;-47
2022/02/17 07:41:15;;;;;;;12.30;3.30;;;11.30;65.80;;;;;;5025233;28;20470;-46
2022/02/17 07:43:42;;;;;;;13.17;3.43;;;11.30;67.70;;;;;;5031929;28;20467;-46
2022/02/17 07:46:10;;;;;;;10.60;2.87;;;11.20;70.80;;;;;;5030498;28;20481;-47
2022/02/17 07:48:37;;;;;;;16.13;4.30;;;11.00;72.70;;;;;;5012874;28;20481;-46
2022/02/17 07:51:05;;;;;;;10.83;3.27;;;10.90;74.40;;;;;;5027307;28;20914;-46
2022/02/17 07:53:32;;;;;;;11.57;3.30;;;10.70;74.70;;;;;;5029206;28;21143;-46
2022/02/17 07:55:59;;;;;;;12.90;3.70;;;10.60;75.30;;;;;;5029664;28;21090;-46
2022/02/17 07:58:26;;;;;;;15.37;3.77;;;10.50;76.30;;;;;;5028000;28;20460;-46
2022/02/17 08:00:53;;;;;;;16.47;4.03;;;10.40;76.10;;;;;;5013544;28;20998;-46
2022/02/17 08:03:20;;;;;;;16.80;3.73;;;10.40;76.60;;;;;;5011485;28;20877;-46
2022/02/17 08:05:47;;;;;;;14.30;4.23;;;10.40;75.30;;;;;;5028725;28;20459;-47
2022/02/17 08:08:14;;;;;;;13.63;3.97;;;10.40;74.50;;;;;;5029775;28;20907;-46
2022/02/17 08:10:41;;;;;;;7.97;4.00;;;10.40;74.00;;;;;;5014293;28;20550;-46
2022/02/17 08:13:09;;;;;;;18.47;3.97;;;10.50;72.80;;;;;;5026885;28;20488;-47
2022/02/17 08:15:36;;;;;;;23.13;4.70;;;10.60;72.70;;;;;;5012149;28;21015;-46
2022/02/17 08:18:05;;;;;;;13.10;4.13;;;10.60;72.70;;;;;;5028972;28;20880;-47
2022/02/17 08:20:32;;;;;;;16.10;4.23;;;10.70;71.40;;;;;;5031278;28;20459;-46
2022/02/17 08:22:58;;;;;;;13.47;4.50;;;10.80;71.40;;;;;;5028239;28;20477;-47
2022/02/17 08:25:25;;;;;;;18.43;4.63;;;10.90;69.50;;;;;;5024151;28;20562;-47
2022/02/17 08:27:52;;;;;;;15.53;5.03;;;11.00;68.80;;;;;;5025263;28;20998;-46
2022/02/17 08:30:22;;;;;;;8.30;4.10;;;11.10;68.60;;;;;;5026335;28;20964;-47
2022/02/17 08:32:55;;;;;;;16.87;3.87;;;11.00;67.30;;;;;;5027508;28;20578;-46
2022/02/17 08:35:24;;;;;;;20.30;4.47;;;11.00;67.70;;;;;;5028465;28;20822;-47
2022/02/17 08:37:51;;;;;;;13.00;4.27;;;11.00;68.40;;;;;;5027987;28;20550;-46
2022/02/17 08:40:18;;;;;;;14.73;3.80;;;11.00;68.70;;;;;;5028356;28;20463;-47
2022/02/17 08:42:45;;;;;;;13.03;3.80;;;11.00;69.90;;;;;;5027118;28;20565;-47
2022/02/17 08:45:11;;;;;;;16.60;4.93;;;11.00;70.30;;;;;;5018783;28;20467;-47
2022/02/17 08:47:39;;;;;;;18.63;3.27;;;11.00;69.10;;;;;;5027792;28;20491;-47
2022/02/17 08:50:08;;;;;;;21.27;4.17;;;11.00;69.20;;;;;;5027076;28;20554;-47
2022/02/17 08:52:39;;;;;;;15.43;3.70;;;11.00;69.80;;;;;;5028177;28;20493;-47
2022/02/17 08:55:07;;;;;;;12.27;5.00;;;11.00;70.10;;;;;;5027405;28;20447;-47
2022/02/17 08:57:36;;;;;;;19.80;5.07;;;11.10;69.30;;;;;;5027593;28;20968;-47
2022/02/17 09:00:04;;;;;;;18.97;4.40;;;11.10;70.40;;;;;;5028309;28;20459;-47
2022/02/17 09:02:31;;;;;;;11.33;4.27;;;11.20;69.10;;;;;;5013343;28;20455;-47
2022/02/17 09:04:57;;;;;;;10.03;3.27;;;11.30;67.90;;;;;;5028630;28;20447;-47
2022/02/17 09:07:24;;;;;;;9.97;3.80;;;11.30;67.20;;;;;;5026418;28;20534;-47
2022/02/17 09:09:51;;;;;;;16.57;5.33;;;11.50;66.10;;;;;;5028476;28;20542;-47
2022/02/17 09:12:19;;;;;;;15.13;3.87;;;11.60;64.70;;;;;;5025881;28;20891;-47
2022/02/17 09:14:45;;;;;;;9.90;4.17;;;11.70;65.20;;;;;;5014558;28;20483;-47
2022/02/17 09:17:12;;;;;;;13.53;4.80;;;11.70;64.50;;;;;;5027981;28;20468;-47
2022/02/17 09:19:42;;;;;;;14.97;4.40;;;11.70;65.30;;;;;;5028240;28;21089;-47
2022/02/17 09:22:08;;;;;;;16.37;4.23;;;11.80;64.70;;;;;;5027268;28;20501;-47
2022/02/17 09:24:35;;;;;;;12.00;3.90;;;11.80;64.70;;;;;;5026470;28;20460;-47
2022/02/17 09:27:03;;;;;;;8.73;3.60;;;11.80;64.10;;;;;;5023096;28;20563;-47
2022/02/17 09:29:29;;;;;;;12.63;4.20;;;11.80;65.30;;;;;;5028688;28;20542;-47
2022/02/17 09:32:16;;;;;;;19.17;3.73;;;11.80;66.00;;;;;;5028090;28;20487;-47
2022/02/17 09:34:45;;;;;;;13.43;3.43;;;11.80;65.60;;;;;;5030361;28;20884;-47
2022/02/17 09:37:12;;;;;;;10.50;3.50;;;11.80;65.40;;;;;;5012767;28;20950;-47
2022/02/17 09:39:39;;;;;;;9.80;2.97;;;11.80;65.00;;;;;;5011531;28;20546;-47
2022/02/17 09:42:06;;;;;;;10.17;3.73;;;11.80;64.60;;;;;;5027707;28;20586;-47
2022/02/17 09:44:35;;;;;;;10.43;2.83;;;11.80;64.00;;;;;;5025104;28;20494;-47
2022/02/17 09:47:04;;;;;;;6.47;1.73;;;11.80;64.40;;;;;;5010401;28;20497;-47
2022/02/17 09:49:32;;;;;;;5.80;2.47;;;11.80;64.50;;;;;;5003899;28;20552;-47
2022/02/17 09:51:59;;;;;;;4.80;2.53;;;11.70;65.40;;;;;;5025209;28;20490;-47
2022/02/17 09:54:26;;;;;;;10.00;2.43;;;11.50;65.30;;;;;;5026895;28;20458;-46
2022/02/17 09:56:53;;;;;;;10.20;2.40;;;11.40;66.70;;;;;;5012666;28;20458;-46
2022/02/17 09:59:20;;;;;;;10.33;2.10;;;11.20;68.70;;;;;;5027919;28;20760;-46
2022/02/17 10:02:00;;;;;;;10.40;2.50;;;11.10;71.10;;;;;;5025633;28;20993;-46
2022/02/17 10:04:28;;;;;;;9.37;2.80;;;10.80;70.70;;;;;;5024649;28;20874;-46
2022/02/17 10:06:59;;;;;;;9.13;2.70;;;10.70;71.60;;;;;;5025895;28;20467;-46
2022/02/17 10:09:38;;;;;;;8.53;2.90;;;10.60;72.60;;;;;;5025617;28;20510;-46
2022/02/17 10:12:06;;;;;;;8.10;2.57;;;10.70;73.60;;;;;;5023899;28;21045;-46
2022/02/17 10:14:33;;;;;;;11.63;3.50;;;10.80;73.40;;;;;;5027193;28;20546;-46
2022/02/17 10:17:06;;;;;;;10.67;3.00;;;11.00;72.30;;;;;;5024817;28;20464;-46
2022/02/17 10:19:34;;;;;;;17.90;3.57;;;11.10;72.60;;;;;;5024761;28;20467;-46
2022/02/17 10:22:13;;;;;;;8.63;2.97;;;11.40;71.60;;;;;;5008655;28;21225;-46
2022/02/17 10:24:40;;;;;;;10.40;2.70;;;11.60;70.30;;;;;;5024712;28;20473;-46
2022/02/17 10:27:21;;;;;;;9.90;4.57;;;11.80;70.50;;;;;;5009878;28;20463;-46
2022/02/17 10:30:11;;;;;;;16.87;3.70;;;11.90;67.80;;;;;;5022373;28;20467;-46
2022/02/17 10:33:03;;;;;;;7.77;3.30;;;12.00;66.10;;;;;;5024294;28;20948;-46
2022/02/17 10:35:30;;;;;;;8.23;2.67;;;12.10;66.90;;;;;;5026582;28;20466;-46
2022/02/17 10:37:59;;;;;;;13.73;3.07;;;12.10;66.80;;;;;;5027427;28;20591;-46
2022/02/17 10:40:28;;;;;;;12.00;4.30;;;12.20;67.10;;;;;;5023395;28;20495;-46
2022/02/17 10:43:06;;;;;;;12.33;3.53;;;12.30;66.70;;;;;;5028405;28;20550;-47
2022/02/17 10:45:41;;;;;;;17.07;3.67;;;12.40;67.30;;;;;;5027595;28;20459;-47
2022/02/17 10:48:15;;;;;;;14.43;3.50;;;12.40;65.90;;;;;;5027704;28;20464;-47
2022/02/17 10:50:43;;;;;;;10.40;3.43;;;12.30;66.00;;;;;;5025452;28;20837;-47
2022/02/17 10:53:18;;;;;;;15.70;3.70;;;12.20;65.10;;;;;;5010258;28;20495;-47
2022/02/17 10:55:51;;;;;;;13.87;5.03;;;12.20;65.10;;;;;;5023551;28;20498;-47
2022/02/17 10:58:20;;;;;;;15.80;3.67;;;12.10;65.80;;;;;;5006095;28;20459;-47
2022/02/17 11:00:47;;;;;;;13.10;3.67;;;12.10;65.80;;;;;;5025538;28;20951;-47
2022/02/17 11:03:15;;;;;;;14.70;3.90;;;12.10;65.80;;;;;;5005041;28;20467;-47
2022/02/17 11:06:04;;;;;;;13.70;3.97;;;12.10;65.70;;;;;;4999070;28;20452;-47
2022/02/17 11:08:32;;;;;;;12.77;2.70;;;12.20;64.50;;;;;;5005670;28;20468;-47
2022/02/17 11:10:59;;;;;;;15.37;4.47;;;12.30;61.30;;;;;;5024712;28;20463;-47
2022/02/17 11:13:27;;;;;;;9.50;3.37;;;12.40;60.90;;;;;;5023538;28;20622;-47
2022/02/17 11:15:58;;;;;;;13.90;3.10;;;12.50;59.70;;;;;;5026856;28;20455;-47
2022/02/17 11:18:26;;;;;;;8.57;2.77;;;12.70;59.20;;;;;;5021140;28;20486;-46
2022/02/17 11:20:53;;;;;;;10.60;3.00;;;12.90;56.50;;;;;;5024050;28;20482;-47
2022/02/17 11:23:31;;;;;;;13.87;3.57;;;13.00;57.60;;;;;;5024517;28;20463;-47
2022/02/17 11:25:59;;;;;;;10.17;3.00;;;13.20;58.60;;;;;;5023597;28;20473;-47
2022/02/17 11:28:37;;;;;;;10.23;2.90;;;13.40;57.10;;;;;;5026231;28;20551;-46
2022/02/17 11:31:11;;;;;;;12.07;3.27;;;13.60;56.70;;;;;;5008853;28;20856;-46
2022/02/17 11:33:42;;;;;;;5.33;3.13;;;13.70;57.90;;;;;;5027121;28;21005;-46
2022/02/17 11:36:09;;;;;;;8.83;2.33;;;13.90;57.00;;;;;;5024561;28;20480;-47
2022/02/17 11:38:40;;;;;;;11.37;3.53;;;14.00;57.60;;;;;;5026366;28;20470;-47
2022/02/17 11:41:08;;;;;;;7.73;2.83;;;14.20;57.40;;;;;;5011830;28;20473;-47
2022/02/17 11:43:39;;;;;;;10.50;3.27;;;14.30;57.40;;;;;;5023783;28;20506;-46
2022/02/17 11:46:09;;;;;;;7.77;2.60;;;14.30;56.20;;;;;;5025418;28;20469;-47
2022/02/17 11:48:45;;;;;;;8.40;3.20;;;14.20;57.30;;;;;;5023050;28;20483;-46
2022/02/17 11:51:22;;;;;;;9.20;2.60;;;14.00;56.70;;;;;;5006645;28;20463;-46
2022/02/17 11:54:14;;;;;;;10.40;3.43;;;13.90;57.80;;;;;;5023247;28;20809;-46
2022/02/17 11:56:44;;;;;;;5.03;2.50;;;13.80;57.90;;;;;;5023537;28;20960;-46
2022/02/17 11:59:19;;;;;;;8.73;3.23;;;13.70;58.70;;;;;;5023613;28;20887;-46
2022/02/17 12:01:46;;;;;;;10.90;3.57;;;13.60;59.00;;;;;;5007713;28;20471;-46
2022/02/17 12:04:34;;;;;;;5.90;2.77;;;13.50;59.50;;;;;;5025144;28;21120;-46
2022/02/17 12:07:27;;;;;;;11.37;2.30;;;13.40;60.20;;;;;;5023283;28;20501;-46
2022/02/17 12:09:54;;;;;;;9.20;2.20;;;13.30;59.20;;;;;;5024449;28;20550;-46
2022/02/17 12:12:27;;;;;;;6.60;2.10;;;13.10;59.10;;;;;;5021868;28;20491;-46
2022/02/17 12:14:54;;;;;;;9.50;2.13;;;13.00;58.70;;;;;;5023904;28;20467;-46
2022/02/17 12:17:34;;;;;;;3.80;1.80;;;12.90;58.40;;;;;;5023961;28;20505;-46
2022/02/17 12:20:12;;;;;;;6.43;1.67;;;12.70;60.80;;;;;;5024257;28;20850;-46
2022/02/17 12:22:53;;;;;;;4.90;2.17;;;12.50;63.10;;;;;;5022184;28;20569;-46
2022/02/17 12:25:24;;;;;;;5.37;1.63;;;12.20;64.50;;;;;;5006435;28;21034;-46
2022/02/17 12:27:55;;;;;;;4.97;1.33;;;12.00;65.20;;;;;;5019752;28;20455;-46
2022/02/17 12:30:25;;;;;;;3.77;1.70;;;11.90;65.60;;;;;;5026315;28;20542;-46
2022/02/17 12:33:06;;;;;;;4.13;1.63;;;11.80;65.80;;;;;;5008256;28;20530;-46
2022/02/17 12:35:34;;;;;;;7.23;2.60;;;11.80;66.60;;;;;;5029658;28;20474;-46
2022/02/17 12:38:08;;;;;;;7.60;1.93;;;11.70;66.60;;;;;;5029472;28;20447;-46
2022/02/17 12:40:36;;;;;;;5.07;2.20;;;11.80;66.40;;;;;;5005914;28;20495;-47
2022/02/17 12:43:04;;;;;;;3.80;1.93;;;11.80;66.70;;;;;;5029550;28;20459;-47
2022/02/17 12:45:46;;;;;;;7.60;2.53;;;11.80;65.90;;;;;;5025553;28;20517;-46
2022/02/17 12:48:14;;;;;;;9.03;2.47;;;11.90;65.90;;;;;;5019227;28;20907;-46
2022/02/17 12:51:02;;;;;;;5.83;1.87;;;11.90;66.20;;;;;;5021499;28;20452;-46
2022/02/17 12:53:50;;;;;;;8.30;2.50;;;11.90;66.10;;;;;;4990899;28;20497;-46